createdAt,value
2019-05-11T00:01:28.025Z,4.70
2019-05-11T00:03:51.487Z,4.10
2019-05-11T00:06:14.985Z,4.37
2019-05-11T00:08:38.410Z,4.60
2019-05-11T00:11:01.959Z,4.60
2019-05-11T00:13:25.399Z,4.80
2019-05-11T00:15:48.834Z,4.37
2019-05-11T00:18:12.369Z,4.80
2019-05-11T00:20:35.804Z,4.37
2019-05-11T00:22:59.263Z,4.50
2019-05-11T00:25:22.681Z,4.93
2019-05-11T00:27:46.182Z,4.43
2019-05-11T00:30:09.983Z,4.23
2019-05-11T00:32:33.515Z,4.60
2019-05-11T00:34:56.938Z,4.27
2019-05-11T00:37:20.361Z,5.20
2019-05-11T00:39:43.826Z,4.50
2019-05-11T00:42:07.252Z,4.87
2019-05-11T00:44:30.711Z,5.37
2019-05-11T00:46:54.135Z,4.80
2019-05-11T00:49:18.001Z,5.63
2019-05-11T00:51:41.430Z,5.73
2019-05-11T00:54:04.920Z,5.40
2019-05-11T00:56:28.383Z,4.63
2019-05-11T00:58:51.839Z,4.80
2019-05-11T01:01:15.263Z,4.50
2019-05-11T01:03:38.717Z,4.17
2019-05-11T01:06:02.138Z,4.57
2019-05-11T01:08:25.609Z,5.03
2019-05-11T01:10:49.069Z,4.70
2019-05-11T01:13:12.489Z,5.00
2019-05-11T01:15:35.950Z,5.10
2019-05-11T01:17:59.380Z,4.60
2019-05-11T01:20:22.843Z,4.57
2019-05-11T01:22:46.260Z,5.27
2019-05-11T01:25:09.877Z,5.37
2019-05-11T01:27:33.279Z,5.53
2019-05-11T01:29:56.691Z,5.77
2019-05-11T01:32:20.152Z,5.58
2019-05-11T01:34:43.563Z,4.90
2019-05-11T01:37:06.981Z,5.30
2019-05-11T01:39:30.438Z,4.83
2019-05-11T01:41:54.282Z,5.13
2019-05-11T01:44:17.735Z,5.57
2019-05-11T01:46:41.193Z,4.97
2019-05-11T01:49:04.638Z,5.67
2019-05-11T01:51:28.061Z,5.93
2019-05-11T01:53:51.524Z,5.20
2019-05-11T01:56:14.951Z,5.07
2019-05-11T01:58:38.742Z,5.47
2019-05-11T02:01:02.214Z,5.30
2019-05-11T02:03:25.635Z,5.60
2019-05-11T02:05:51.644Z,5.10
2019-05-11T02:08:14.248Z,5.30
2019-05-11T02:10:37.789Z,5.37
2019-05-11T02:13:01.217Z,6.17
2019-05-11T02:15:24.672Z,5.87
2019-05-11T02:17:48.398Z,6.00
2019-05-11T02:20:12.094Z,6.13
2019-05-11T02:22:35.551Z,6.50
2019-05-11T02:24:58.967Z,5.73
2019-05-11T02:27:22.475Z,6.37
2019-05-11T02:29:45.874Z,6.97
2019-05-11T02:32:09.339Z,7.67
2019-05-11T02:34:32.833Z,6.87
2019-05-11T02:36:56.306Z,7.87
2019-05-11T02:39:19.734Z,7.00
2019-05-11T02:41:43.167Z,6.78
2019-05-11T02:44:06.699Z,6.57
2019-05-11T02:46:30.438Z,5.93
2019-05-11T02:48:53.897Z,7.00
2019-05-11T02:51:17.315Z,6.53
2019-05-11T02:53:42.271Z,6.43
2019-05-11T02:56:06.045Z,7.10
2019-05-11T02:58:29.503Z,6.57
2019-05-11T03:00:52.915Z,7.00
2019-05-11T03:03:16.372Z,7.07
2019-05-11T03:05:40.143Z,8.90
2019-05-11T03:08:03.668Z,7.40
2019-05-11T03:10:27.141Z,6.43
2019-05-11T03:12:50.551Z,7.03
2019-05-11T03:15:14.075Z,6.83
2019-05-11T03:17:37.495Z,6.93
2019-05-11T03:20:01.437Z,7.00
2019-05-11T03:22:24.868Z,6.77
2019-05-11T03:24:48.318Z,7.30
2019-05-11T03:27:11.753Z,7.37
2019-05-11T03:29:35.282Z,6.80
2019-05-11T03:31:58.794Z,7.00
2019-05-11T03:34:22.201Z,6.67
2019-05-11T03:36:45.656Z,7.20
2019-05-11T03:39:09.080Z,7.80
2019-05-11T03:41:32.532Z,7.10
2019-05-11T03:43:57.335Z,7.80
2019-05-11T03:46:21.123Z,8.07
2019-05-11T03:48:44.988Z,7.57
2019-05-11T03:51:08.447Z,8.10
2019-05-11T03:53:31.876Z,8.23
2019-05-11T03:55:55.298Z,7.27
2019-05-11T03:58:18.932Z,7.57
2019-05-11T04:00:42.356Z,8.10
2019-05-11T04:03:05.814Z,8.03
2019-05-11T04:05:29.232Z,7.97
2019-05-11T04:07:52.700Z,6.67
2019-05-11T04:10:16.398Z,6.90
2019-05-11T04:12:39.814Z,7.23
2019-05-11T04:15:03.953Z,7.40
2019-05-11T04:17:27.379Z,6.73
2019-05-11T04:19:51.410Z,7.53
2019-05-11T04:22:15.117Z,7.63
2019-05-11T04:24:38.581Z,6.93
2019-05-11T04:27:01.999Z,7.50
2019-05-11T04:29:25.441Z,6.90
2019-05-11T04:31:48.861Z,7.90
2019-05-11T04:34:12.330Z,8.63
2019-05-11T04:36:35.743Z,7.13
2019-05-11T04:38:59.203Z,8.77
2019-05-11T04:41:22.755Z,8.20
2019-05-11T04:43:46.216Z,7.53
2019-05-11T04:46:09.633Z,7.73
2019-05-11T04:48:33.090Z,7.33
2019-05-11T04:50:56.509Z,8.17
2019-05-11T04:53:19.969Z,8.00
2019-05-11T04:55:43.421Z,8.40
2019-05-11T04:58:06.836Z,7.70
2019-05-11T05:00:30.625Z,8.60
2019-05-11T05:02:54.033Z,7.33
2019-05-11T05:05:17.501Z,9.07
2019-05-11T05:07:47.986Z,7.83
2019-05-11T05:10:06.510Z,8.37
2019-05-11T05:12:29.980Z,8.17
2019-05-11T05:14:53.402Z,8.73
2019-05-11T05:17:16.862Z,8.43
2019-05-11T05:19:40.278Z,9.43
2019-05-11T05:22:03.741Z,10.20
2019-05-11T05:24:27.181Z,12.47
2019-05-11T05:26:50.615Z,15.67
2019-05-11T05:29:14.085Z,13.73
2019-05-11T05:31:37.895Z,12.97
2019-05-11T05:34:01.643Z,11.60
2019-05-11T05:36:25.080Z,10.87
2019-05-11T05:38:48.551Z,11.60
2019-05-11T05:41:11.974Z,10.30
2019-05-11T05:43:35.438Z,11.43
2019-05-11T05:45:58.867Z,10.70
2019-05-11T05:48:22.645Z,11.20
2019-05-11T05:50:46.075Z,10.37
2019-05-11T05:53:09.542Z,10.23
2019-05-11T05:55:32.964Z,9.13
2019-05-11T05:57:56.430Z,14.77
2019-05-11T06:00:20.577Z,11.73
2019-05-11T06:02:44.054Z,10.67
2019-05-11T06:05:07.957Z,11.40
2019-05-11T06:07:31.430Z,9.47
2019-05-11T06:09:54.951Z,10.00
2019-05-11T06:12:18.421Z,13.70
2019-05-11T06:14:41.862Z,17.90
2019-05-11T06:17:05.293Z,12.33
2019-05-11T06:19:28.795Z,12.17
2019-05-11T06:21:52.220Z,11.67
2019-05-11T06:24:15.653Z,12.27
2019-05-11T06:26:39.125Z,10.40
2019-05-11T06:29:02.557Z,8.97
2019-05-11T06:31:26.308Z,9.57
2019-05-11T06:33:50.097Z,9.10
2019-05-11T06:36:13.533Z,10.00
2019-05-11T06:38:36.999Z,8.97
2019-05-11T06:41:00.772Z,9.03
2019-05-11T06:43:24.950Z,10.47
2019-05-11T06:45:48.399Z,13.50
2019-05-11T06:48:12.189Z,10.73
2019-05-11T06:50:35.964Z,9.50
2019-05-11T06:52:59.727Z,10.33
2019-05-11T06:55:23.205Z,10.83
2019-05-11T06:57:46.825Z,11.27
2019-05-11T07:00:11.391Z,11.50
2019-05-11T07:02:34.863Z,10.20
2019-05-11T07:04:58.286Z,8.57
2019-05-11T07:07:21.796Z,8.33
2019-05-11T07:09:45.229Z,8.07
2019-05-11T07:12:08.693Z,6.87
2019-05-11T07:14:32.270Z,4.70
2019-05-11T07:16:55.682Z,3.90
2019-05-11T07:19:19.137Z,4.10
2019-05-11T07:21:42.556Z,4.30
2019-05-11T07:24:06.132Z,3.73
2019-05-11T07:26:29.688Z,3.20
2019-05-11T07:28:53.107Z,3.23
2019-05-11T07:31:16.536Z,3.20
2019-05-11T07:33:40.237Z,3.73
2019-05-11T07:36:03.732Z,3.63
2019-05-11T07:38:27.931Z,3.40
2019-05-11T07:40:51.725Z,3.50
2019-05-11T07:43:15.194Z,5.10
2019-05-11T07:45:38.825Z,5.27
2019-05-11T07:48:02.246Z,7.53
2019-05-11T07:50:28.154Z,9.63
2019-05-11T07:52:50.814Z,10.10
2019-05-11T07:55:14.384Z,11.23
2019-05-11T07:57:39.012Z,8.30
2019-05-11T08:00:02.911Z,6.70
2019-05-11T08:02:28.557Z,8.67
2019-05-11T08:04:51.820Z,7.07
2019-05-11T08:07:15.242Z,6.00
2019-05-11T08:09:38.690Z,4.10
2019-05-11T08:12:02.159Z,3.75
2019-05-11T08:14:25.587Z,3.73
2019-05-11T08:16:49.010Z,3.80
2019-05-11T08:19:12.475Z,5.10
2019-05-11T08:21:36.144Z,4.67
2019-05-11T08:23:59.573Z,5.13
2019-05-11T08:26:23.025Z,3.80
2019-05-11T08:28:48.569Z,3.83
2019-05-11T08:31:11.635Z,3.83
2019-05-11T08:33:35.062Z,4.13
2019-05-11T08:35:58.522Z,3.70
2019-05-11T08:38:21.975Z,4.03
2019-05-11T08:40:45.652Z,4.13
2019-05-11T08:43:09.134Z,4.53
2019-05-11T08:45:32.628Z,4.47
2019-05-11T08:47:58.002Z,5.27
2019-05-11T08:50:21.293Z,5.10
2019-05-11T08:52:44.744Z,5.30
2019-05-11T08:55:09.506Z,4.73
2019-05-11T08:57:32.970Z,4.40
2019-05-11T08:59:57.849Z,3.97
2019-05-11T09:02:21.700Z,4.17
2019-05-11T09:04:45.128Z,3.70
2019-05-11T09:07:08.557Z,3.17
2019-05-11T09:09:32.380Z,3.53
2019-05-11T09:11:55.799Z,3.50
2019-05-11T09:14:19.256Z,2.57
2019-05-11T09:16:42.796Z,3.37
2019-05-11T09:19:08.579Z,3.13
2019-05-11T09:21:31.402Z,3.03
2019-05-11T09:23:55.099Z,2.20
2019-05-11T09:26:18.521Z,4.57
2019-05-11T09:28:42.218Z,4.67
2019-05-11T09:31:08.335Z,5.93
2019-05-11T09:33:30.836Z,4.33
2019-05-11T09:35:54.310Z,3.90
2019-05-11T09:38:18.536Z,2.90
2019-05-11T09:40:42.057Z,2.90
2019-05-11T09:43:05.512Z,2.80
2019-05-11T09:45:28.928Z,2.67
2019-05-11T09:47:52.635Z,2.70
2019-05-11T09:50:17.918Z,2.67
2019-05-11T09:52:41.641Z,1.73
2019-05-11T09:55:08.763Z,9.37
2019-05-11T09:57:32.457Z,2.23
2019-05-11T09:59:58.110Z,1.63
2019-05-11T10:02:21.313Z,1.90
2019-05-11T10:04:44.694Z,1.73
2019-05-11T10:07:09.020Z,1.77
2019-05-11T10:09:32.798Z,1.90
2019-05-11T10:11:58.430Z,1.90
2019-05-11T10:14:22.349Z,1.60
2019-05-11T10:16:48.966Z,1.50
2019-05-11T10:19:12.349Z,1.40
2019-05-11T10:21:35.780Z,1.60
2019-05-11T10:23:59.496Z,1.77
2019-05-11T10:26:22.919Z,2.80
2019-05-11T10:28:48.167Z,2.23
2019-05-11T10:31:11.584Z,2.10
2019-05-11T10:33:35.008Z,2.20
2019-05-11T10:36:00.944Z,3.10
2019-05-11T10:38:23.897Z,2.80
2019-05-11T10:40:48.170Z,2.50
2019-05-11T10:43:11.790Z,3.40
2019-05-11T10:45:37.744Z,3.90
2019-05-11T10:48:01.264Z,3.70
2019-05-11T10:50:24.800Z,4.20
2019-05-11T10:52:48.521Z,7.00
2019-05-11T10:55:12.138Z,6.03
2019-05-11T10:57:35.597Z,3.93
2019-05-11T10:59:59.306Z,3.73
2019-05-11T11:02:22.759Z,3.10
2019-05-11T11:04:48.417Z,3.97
2019-05-11T11:07:11.355Z,3.40
2019-05-11T11:09:34.812Z,2.30
2019-05-11T11:11:58.290Z,3.00
2019-05-11T11:14:21.730Z,3.60
2019-05-11T11:16:47.636Z,2.93
2019-05-11T11:19:10.387Z,4.83
2019-05-11T11:21:34.126Z,6.00
2019-05-11T11:23:58.730Z,3.60
2019-05-11T11:26:22.352Z,2.80
2019-05-11T11:28:47.835Z,3.03
2019-05-11T11:31:10.948Z,3.00
2019-05-11T11:33:34.399Z,3.20
2019-05-11T11:35:58.089Z,3.90
2019-05-11T11:38:21.464Z,3.33
2019-05-11T11:40:44.878Z,2.53
2019-05-11T11:43:08.765Z,1.90
2019-05-11T11:45:32.273Z,1.70
2019-05-11T11:47:57.948Z,1.70
2019-05-11T11:50:20.894Z,1.77
2019-05-11T11:52:45.142Z,3.80
2019-05-11T11:55:10.182Z,1.40
2019-05-11T11:57:33.642Z,1.30
2019-05-11T11:59:58.712Z,1.70
2019-05-11T12:02:22.667Z,1.90
2019-05-11T12:04:46.595Z,1.60
2019-05-11T12:07:11.308Z,1.80
2019-05-11T12:09:34.767Z,1.77
2019-05-11T12:11:58.420Z,1.70
2019-05-11T12:14:22.130Z,1.90
2019-05-11T12:16:47.821Z,2.20
2019-05-11T12:19:10.777Z,2.30
2019-05-11T12:21:34.205Z,2.12
2019-05-11T12:23:58.501Z,2.27
2019-05-11T12:26:22.325Z,2.40
2019-05-11T12:28:45.738Z,2.27
2019-05-11T12:31:09.213Z,2.30
2019-05-11T12:33:32.620Z,2.00
2019-05-11T12:35:56.083Z,2.00
2019-05-11T12:38:19.505Z,1.80
2019-05-11T12:40:42.932Z,1.87
2019-05-11T12:43:08.187Z,2.50
2019-05-11T12:45:31.531Z,3.00
2019-05-11T12:47:55.250Z,3.87
2019-05-11T12:50:19.119Z,3.27
2019-05-11T12:52:42.535Z,2.60
2019-05-11T12:55:08.727Z,2.27
2019-05-11T12:57:32.301Z,2.10
2019-05-11T12:59:58.093Z,2.30
2019-05-11T13:02:20.984Z,2.67
2019-05-11T13:04:44.397Z,3.20
2019-05-11T13:07:08.711Z,3.20
2019-05-11T13:09:32.291Z,3.20
2019-05-11T13:11:55.706Z,2.87
2019-05-11T13:14:19.254Z,3.93
2019-05-11T13:16:42.674Z,3.67
2019-05-11T13:19:08.396Z,4.30
2019-05-11T13:21:31.539Z,4.30
2019-05-11T13:23:54.969Z,3.90
2019-05-11T13:26:18.590Z,3.40
2019-05-11T13:28:42.045Z,4.40
2019-05-11T13:31:08.058Z,4.87
2019-05-11T13:33:30.925Z,5.17
2019-05-11T13:35:54.424Z,5.50
2019-05-11T13:38:18.047Z,5.00
2019-05-11T13:40:41.479Z,4.33
2019-05-11T13:43:04.935Z,4.33
2019-05-11T13:45:28.422Z,4.70
2019-05-11T13:47:55.670Z,5.07
2019-05-11T13:50:17.798Z,5.10
2019-05-11T13:52:41.269Z,6.67
2019-05-11T13:55:07.787Z,6.42
2019-05-11T13:57:31.688Z,5.37
2019-05-11T13:59:55.212Z,6.50
2019-05-11T14:02:18.821Z,6.80
2019-05-11T14:04:42.711Z,5.87
2019-05-11T14:07:08.076Z,5.53
2019-05-11T14:09:31.721Z,5.30
2019-05-11T14:11:55.584Z,5.93
2019-05-11T14:14:19.045Z,4.43
2019-05-11T14:16:42.457Z,4.70
2019-05-11T14:19:08.411Z,6.57
2019-05-11T14:21:31.440Z,5.07
2019-05-11T14:23:55.081Z,5.63
2019-05-11T14:26:19.362Z,7.23
2019-05-11T14:28:43.104Z,6.13
2019-05-11T14:31:08.186Z,5.77
2019-05-11T14:33:31.744Z,5.80
2019-05-11T14:35:55.163Z,6.00
2019-05-11T14:38:18.995Z,6.60
2019-05-11T14:40:42.525Z,6.07
2019-05-11T14:43:08.258Z,6.23
2019-05-11T14:45:31.308Z,5.73
2019-05-11T14:47:55.089Z,4.97
2019-05-11T14:50:19.023Z,5.20
2019-05-11T14:52:42.553Z,5.00
2019-05-11T14:55:08.153Z,4.90
2019-05-11T14:57:31.801Z,5.70
2019-05-11T14:59:55.517Z,5.40
2019-05-11T15:02:37.801Z,5.13
2019-05-11T15:05:01.309Z,4.30
2019-05-11T15:08:00.454Z,4.40
2019-05-11T15:10:23.922Z,3.70
2019-05-11T15:12:48.925Z,4.00
2019-05-11T15:15:13.134Z,4.60
2019-05-11T15:17:36.921Z,3.73
2019-05-11T15:20:01.142Z,3.20
2019-05-11T15:22:24.556Z,2.97
2019-05-11T15:24:48.441Z,3.00
2019-05-11T15:27:12.016Z,2.97
2019-05-11T15:29:37.668Z,3.00
2019-05-11T15:32:00.920Z,2.90
2019-05-11T15:34:24.686Z,2.63
2019-05-11T15:36:49.097Z,2.97
2019-05-11T15:39:12.772Z,3.40
2019-05-11T15:41:38.565Z,3.00
2019-05-11T15:44:01.349Z,2.87
2019-05-11T15:46:24.798Z,3.00
2019-05-11T15:49:02.132Z,2.73
2019-05-11T15:51:13.361Z,2.70
2019-05-11T15:53:36.821Z,2.83
2019-05-11T15:56:00.275Z,3.33
2019-05-11T15:58:23.693Z,3.23
2019-05-11T16:00:48.399Z,3.10
2019-05-11T16:03:11.928Z,3.33
2019-05-11T16:05:35.384Z,3.83
2019-05-11T16:08:01.703Z,3.00
2019-05-11T16:10:24.183Z,2.83
2019-05-11T16:12:48.656Z,3.00
2019-05-11T16:15:12.810Z,3.73
2019-05-11T16:17:40.081Z,3.87
2019-05-11T16:20:01.480Z,3.90
2019-05-11T16:22:25.311Z,3.70
2019-05-11T16:24:48.754Z,4.33
2019-05-11T16:27:12.292Z,4.30
2019-05-11T16:29:35.720Z,3.00
2019-05-11T16:31:59.134Z,3.30
2019-05-11T16:34:22.821Z,3.13
2019-05-11T16:36:47.993Z,3.25
2019-05-11T16:39:11.516Z,5.40
2019-05-11T16:41:35.063Z,7.17
2019-05-11T16:43:58.736Z,4.50
2019-05-11T16:46:22.202Z,7.47
2019-05-11T16:48:45.652Z,8.10
2019-05-11T16:51:09.157Z,5.77
2019-05-11T16:53:35.246Z,3.80
2019-05-11T16:55:58.060Z,3.50
2019-05-11T16:58:21.525Z,4.10
2019-05-11T17:00:45.029Z,2.87
2019-05-11T17:03:08.487Z,3.10
2019-05-11T17:05:33.965Z,3.37
2019-05-11T17:07:58.832Z,3.27
2019-05-11T17:10:34.680Z,2.83
2019-05-11T17:12:59.461Z,3.40
2019-05-11T17:15:22.887Z,4.00
2019-05-11T17:17:48.742Z,4.30
2019-05-11T17:20:12.854Z,3.90
2019-05-11T17:22:38.772Z,3.67
2019-05-11T17:25:03.519Z,3.60
2019-05-11T17:27:28.553Z,3.20
2019-05-11T17:29:56.484Z,3.03
2019-05-11T17:32:20.097Z,2.97
2019-05-11T17:34:47.812Z,3.40
2019-05-11T17:37:09.052Z,2.90
2019-05-11T17:39:32.461Z,2.80
2019-05-11T17:41:58.176Z,2.80
2019-05-11T17:44:21.143Z,3.00
2019-05-11T17:46:44.657Z,2.53
2019-05-11T17:49:08.126Z,3.00
2019-05-11T17:51:31.845Z,2.63
2019-05-11T17:53:55.389Z,3.27
2019-05-11T17:56:19.087Z,3.27
2019-05-11T17:58:42.765Z,3.47
2019-05-11T18:01:09.201Z,3.30
2019-05-11T18:03:31.920Z,3.33
2019-05-11T18:05:55.385Z,2.97
2019-05-11T18:08:18.895Z,3.60
2019-05-11T18:10:43.400Z,3.50
2019-05-11T18:13:06.839Z,4.50
2019-05-11T18:15:30.255Z,4.30
2019-05-11T18:17:53.785Z,4.97
2019-05-11T18:20:21.107Z,4.90
2019-05-11T18:22:43.112Z,4.60
2019-05-11T18:25:08.620Z,5.20
2019-05-11T18:27:32.247Z,6.00
2019-05-11T18:29:57.924Z,5.10
2019-05-11T18:32:20.850Z,6.50
2019-05-11T18:34:44.263Z,6.20
2019-05-11T18:37:08.767Z,6.37
2019-05-11T18:39:32.356Z,7.07
2019-05-11T18:41:55.851Z,7.17
2019-05-11T18:44:19.396Z,6.47
2019-05-11T18:46:42.816Z,6.80
2019-05-11T18:49:06.635Z,7.20
2019-05-11T18:51:30.056Z,8.87
2019-05-11T18:53:53.778Z,8.13
2019-05-11T18:56:18.201Z,7.90
2019-05-11T18:58:42.025Z,8.23
2019-05-11T19:01:05.476Z,8.27
2019-05-11T19:03:29.007Z,7.53
2019-05-11T19:05:52.434Z,7.57
2019-05-11T19:08:15.903Z,7.10
2019-05-11T19:10:39.366Z,7.50
2019-05-11T19:13:02.775Z,6.40
2019-05-11T19:15:26.217Z,7.45
2019-05-11T19:17:49.713Z,6.67
2019-05-11T19:20:13.210Z,7.47
2019-05-11T19:22:37.324Z,7.10
2019-05-11T19:25:01.034Z,6.83
2019-05-11T19:27:24.500Z,6.40
2019-05-11T19:29:48.432Z,6.33
2019-05-11T19:32:11.946Z,5.83
2019-05-11T19:34:35.372Z,6.67
2019-05-11T19:36:58.841Z,6.20
2019-05-11T19:39:22.296Z,6.27
2019-05-11T19:41:45.749Z,5.90
2019-05-11T19:44:09.196Z,5.90
2019-05-11T19:46:32.693Z,6.00
2019-05-11T19:48:57.944Z,6.37
2019-05-11T19:51:21.310Z,5.42
2019-05-11T19:53:44.768Z,5.97
2019-05-11T19:56:08.194Z,5.87
2019-05-11T19:58:31.608Z,6.30
2019-05-11T20:00:55.063Z,4.93
2019-05-11T20:03:18.795Z,5.73
2019-05-11T20:05:42.319Z,6.60
2019-05-11T20:08:07.766Z,6.50
2019-05-11T20:10:30.967Z,6.07
2019-05-11T20:12:54.387Z,6.03
2019-05-11T20:15:18.818Z,6.67
2019-05-11T20:17:42.843Z,6.83
2019-05-11T20:20:08.880Z,7.57
2019-05-11T20:22:32.450Z,5.90
2019-05-11T20:24:57.661Z,6.37
2019-05-11T20:27:21.092Z,6.13
2019-05-11T20:29:44.513Z,6.57
2019-05-11T20:32:08.175Z,6.20
2019-05-11T20:34:31.632Z,5.77
2019-05-11T20:36:55.367Z,6.20
2019-05-11T20:39:18.829Z,7.00
2019-05-11T20:41:42.253Z,6.10
2019-05-11T20:44:05.731Z,6.97
2019-05-11T20:46:29.527Z,5.93
2019-05-11T20:48:53.306Z,6.67
2019-05-11T20:51:32.525Z,7.20
2019-05-11T20:53:41.927Z,7.13
2019-05-11T20:56:05.607Z,6.90
2019-05-11T20:58:30.700Z,7.20
2019-05-11T21:00:54.117Z,6.93
2019-05-11T21:03:17.540Z,7.30
2019-05-11T21:05:41.006Z,7.03
2019-05-11T21:08:04.491Z,6.93
2019-05-11T21:10:28.319Z,7.60
2019-05-11T21:12:51.731Z,7.60
2019-05-11T21:15:16.582Z,7.10
2019-05-11T21:17:40.059Z,6.93
2019-05-11T21:20:07.131Z,6.72
2019-05-11T21:22:30.592Z,6.27
2019-05-11T21:24:54.019Z,6.80
2019-05-11T21:27:20.025Z,8.20
2019-05-11T21:29:42.623Z,7.97
2019-05-11T21:32:08.008Z,8.10
2019-05-11T21:34:31.531Z,8.33
2019-05-11T21:36:54.990Z,7.27
2019-05-11T21:39:18.411Z,7.23
2019-05-11T21:41:42.108Z,7.10
2019-05-11T21:44:07.764Z,6.47
2019-05-11T21:46:31.030Z,7.70
2019-05-11T21:48:54.446Z,7.93
2019-05-11T21:51:18.254Z,9.23
2019-05-11T21:53:42.057Z,8.40
2019-05-11T21:56:07.905Z,8.67
2019-05-11T21:58:30.650Z,9.00
2019-05-11T22:00:54.377Z,8.33
2019-05-11T22:03:18.783Z,9.03
2019-05-11T22:05:42.386Z,9.33
2019-05-11T22:08:05.838Z,9.70
2019-05-11T22:10:29.565Z,10.00
2019-05-11T22:12:53.073Z,10.63
2019-05-11T22:15:16.534Z,10.03
2019-05-11T22:17:39.993Z,8.70
2019-05-11T22:20:04.278Z,9.37
2019-05-11T22:22:28.676Z,8.70
2019-05-11T22:24:52.226Z,8.90
2019-05-11T22:27:15.679Z,9.40
2019-05-11T22:29:39.095Z,8.73
2019-05-11T22:32:02.554Z,8.47
2019-05-11T22:34:28.342Z,8.70
2019-05-11T22:36:51.432Z,8.70
2019-05-11T22:39:17.852Z,9.50
2019-05-11T22:41:40.011Z,9.17
2019-05-11T22:44:04.208Z,8.70
2019-05-11T22:46:28.179Z,9.40
2019-05-11T22:48:51.766Z,9.77
2019-05-11T22:51:15.190Z,9.60
2019-05-11T22:53:44.819Z,9.43
2019-05-11T22:56:03.825Z,9.30
2019-05-11T22:58:27.361Z,8.97
2019-05-11T23:00:50.753Z,8.33
2019-05-11T23:03:14.482Z,8.77
2019-05-11T23:05:38.350Z,9.30
2019-05-11T23:08:01.859Z,9.70
2019-05-11T23:10:25.315Z,9.73
2019-05-11T23:12:48.730Z,9.93
2019-05-11T23:15:15.294Z,10.30
2019-05-11T23:17:39.027Z,11.00
2019-05-11T23:20:02.449Z,11.73
2019-05-11T23:22:25.911Z,11.33
2019-05-11T23:24:49.723Z,11.30
2019-05-11T23:27:13.183Z,10.20
2019-05-11T23:29:38.439Z,12.03
2019-05-11T23:32:01.941Z,10.60
2019-05-11T23:34:25.420Z,13.93
2019-05-11T23:36:48.838Z,13.43
2019-05-11T23:39:12.266Z,13.70
2019-05-11T23:41:38.042Z,13.13
2019-05-11T23:44:01.152Z,14.40
2019-05-11T23:46:24.653Z,14.50
2019-05-11T23:48:48.700Z,14.23
2019-05-11T23:51:12.172Z,14.13
2019-05-11T23:53:35.632Z,14.67
2019-05-11T23:55:59.061Z,15.93
2019-05-11T23:58:22.514Z,15.40
